stroi-baza.ru alexa rank chart, stroi-baza.ru alexa rank daily changes

stroi-baza.ru alexa rank chart, stroi-baza.ru alexa rank daily changes

stroi-baza.ru
Actual rank:
614 868

RANK HISTORY

Date Rank Diff
2018/05/27 614 868 +283 485
2018/05/26 331 383 -53 482
2018/05/25 384 865 +68 122
2018/05/24 316 743 -55 196
2018/05/23 371 939 -108 230
2018/05/22 480 169 -120 079
2018/05/21 600 248 +206 122
2018/05/20 394 126 -488 225
2018/05/19 882 351 +265 781
2018/05/18 616 570 +169 374
2018/05/17 447 196 +93 190
2018/05/16 354 006 -100 866
2018/05/15 454 872 -39 632
2018/05/14 494 504 -51 348
2018/05/13 545 852 +107 888
2018/05/12 437 964 -143 224
2018/05/10 581 188 -37 015
2018/05/09 618 203 +293 540
2018/05/08 324 663 -294 607
2018/05/07 619 270 -43 391
2018/05/06 662 661 +47 671
2018/05/05 614 990 +191 001
2018/05/04 423 989 -438 825
2018/05/01 862 814 +463 586
2018/04/30 399 228 -211 846
2018/04/29 611 074 -210 690
2018/04/28 821 764 +104 847
2018/04/27 716 917 +216 599
2018/04/26 500 318 -5 277
2018/04/25 505 595 -250 008
2018/04/24 755 603 +38 686
2018/04/23 716 917 +317 583
2018/04/22 399 334 +42 465
2018/04/21 356 869 -172 347
2018/04/20 529 216 +148 729
2018/04/19 380 487 -202 688
2018/04/18 583 175 +61 328
2018/04/17 521 847 -347 442
2018/04/16 869 289 +183 480
2018/04/15 685 809 +287 686
2018/04/14 398 123 +47 402
2018/04/13 350 721 -276 145
2018/04/12 626 866 +91 290
2018/04/11 535 576 +311 738
2018/04/10 223 838 -427 275
2018/04/09 651 113 +111 828
2018/04/08 539 285 +147 694
2018/04/07 391 591 +74 200
2018/04/06 317 391 -73 663
2018/04/05 391 054 +96 776
2018/04/04 294 278 -12 639
2018/04/03 306 917 -91 883
2018/04/02 398 800 -269 040
2018/04/01 667 840 +175 763
2018/03/31 492 077 +128 390
2018/03/30 363 687 -267 554
2018/03/29 631 241 +122 247
2018/03/28 508 994

WIDGET FOR YOUR SITE

DOMAINS WITH THE NEAREST RANK

Domain Rank
hr-solutions.space 614 863
sarah-mcdonald.com 614 864
spermaschlampen.tumblr.com 614 865
buzinessware.com 614 866
inspiredmoodlet.tumblr.com 614 867
stroi-baza.ru 614 868
chotabheemonlinegames.com 614 869
hitkiller.com 614 870
red.ua 614 871
vievusolution.com 614 872
elcom-ltd.com.ua 614 873

DOMAINS WITH THE NEAREST RANK BY TLD .ru

Domain Rank
speak-hebrew.ru 614 800
lapotoknn.ru 614 802
proffish.ru 614 803
thebest-fruitfarm.ru 614 851
bask.ru 614 853
stroi-baza.ru 614 868
rwbolov.ru 614 935
kvartirkapro.ru 614 969
novostroev.ru 614 971
stolicaprava.ru 614 973
bestbb.ru 614 985